Gettysburg, Ohio
Current Conditions -  °F | °C
As of 10:56 AM on Thursday 29 Jan 2015 (Local Time) from KDAY Reporting Station
Broken Clouds Broken Clouds  
Wind Chill: 33°   Ceiling: 14000
Heat Index: 41°   Visibility: 10mi
Dew Point: 33°   Wind: 16mph
Humidity: 73%   Direction: 200°SSW
Pressure: 29.8"   Gusts: NA
Location:  40.11°N, 84.5°W
Report Text: KDAY 291556Z 20014KT 10SM SCT035 BKN140 BKN210 05/01 A2980 RMK AO2 SLP099 T00500006
Loading
Personal Weather Stations






























Interactive Weather Map New forecast layout! Learn more

10-Day Weather Forecast

Advertisements
Track Severe Weather on mobile